Latest Coastal Weather Observations for Ngayawili (Elcho Island)

IDD60701

Issued at 12:21 pm CST Sunday 24 July 2016 (issued every 10 minutes, with the page automatically refreshed every 10 minutes)

About coastal observations | Map of coastal stations | Coastal observations for NT | Marine services | Other Formats
Station Details ID: 014517 Name: NGAYAWILI Lat: -12.00 Lon: 135.57 Height: 8.1 m
Data from the previous 72 hours. | See also: Recent months at Ngayawili (Elcho Island)
Date/Time
CST
Temp
°C
Wind Pressure Rain since
9am
mm
Weather Cloud Vis
km
Sea
Height
m
Swell
Dir  Spd
kts
Gust
kts
hPa Trend Height
m
Period
s
Dir
24/12:00pm 29.4 E 9 15 1013.1 - 0.0 - - - - - - -
24/11:30am 28.9 ESE 10 17 1013.3 - 0.0 - - - - - - -
24/11:00am 28.4 E 9 13 1013.5 - 0.0 - - - - - - -
24/10:30am 27.7 E 9 14 1013.6 - 0.0 - - - - - - -
24/10:00am 28.2 E 6 10 1013.6 - 0.0 - - - - - - -
24/09:30am 26.4 SE 7 11 1013.6 - 0.0 - - - - - - -
24/09:00am 25.1 SE 7 10 1013.4 - 0.0 - - - - - - -
24/08:30am 24.2 SE 7 10 1013.3 - 0.0 - - - - - - -
24/08:00am 23.3 ESE 5 8 1013.0 - 0.0 - - - - - - -
24/07:30am 22.5 ESE 4 6 1012.5 - 0.0 - - - - - - -
24/07:00am 22.3 ESE 3 5 1012.1 - 0.0 - - - - - - -
24/06:30am 21.9 SE 3 4 1011.9 - 0.0 - - - - - - -
24/06:00am 21.7 SE 4 5 1011.5 - 0.0 - - - - - - -
24/05:30am 22.2 ESE 4 5 1011.3 - 0.0 - - - - - - -
24/05:00am 21.7 ESE 3 5 1011.0 - 0.0 - - - - - - -
24/04:30am 21.5 ESE 4 4 1010.8 - 0.0 - - - - - - -
24/04:00am 21.0 ESE 5 5 1010.6 - 0.0 - - - - - - -
24/03:30am 20.9 ESE 3 4 1010.7 - 0.0 - - - - - - -
24/03:00am 22.3 CALM 0 0 1010.7 - 0.0 - - - - - - -
24/02:30am 22.2 ESE 4 5 1010.9 - 0.0 - - - - - - -
24/02:00am 22.8 ESE 4 5 1011.1 - 0.0 - - - - - - -
24/01:30am 23.3 ENE 4 5 1011.4 - 0.0 - - - - - - -
24/01:00am 23.4 ESE 3 5 1011.6 - 0.0 - - - - - - -
24/12:30am 23.5 SE 3 5 1011.6 - 0.0 - - - - - - -
24/12:00am 24.1 ESE 3 4 1011.7 - 0.0 - - - - - - -
 
Date/Time
CST
Temp
°C
Wind Pressure Rain since
9am
mm
Weather Cloud Vis
km
Sea
Height
m
Swell
Dir  Spd
kts
Gust
kts
hPa Trend Height
m
Period
s
Dir
23/11:30pm 24.6 SE 4 6 1011.7 - 0.0 - - - - - - -
23/11:00pm 25.0 SE 5 7 1011.8 - 0.0 - - - - - - -
23/10:30pm 25.4 SE 7 10 1012.0 - 0.0 - - - - - - -
23/10:00pm 25.8 ESE 7 10 1012.0 - 0.0 - - - - - - -
23/09:30pm 26.0 ESE 7 12 1011.7 - 0.0 - - - - - - -
23/09:00pm 26.3 ESE 7 11 1011.4 - 0.0 - - - - - - -
23/08:30pm 26.6 ESE 7 11 1011.1 - 0.0 - - - - - - -
23/08:00pm 26.8 E 6 10 1010.8 - 0.0 - - - - - - -
23/07:30pm 27.0 E 6 10 1010.4 - 0.0 - - - - - - -
23/07:00pm 27.3 E 7 11 1010.0 - 0.0 - - - - - - -
23/06:30pm 27.6 ENE 7 11 1009.6 - 0.0 - - - - - - -
23/06:00pm 28.4 ENE 6 10 1009.4 - 0.0 - - - - - - -
23/05:30pm 29.2 ENE 7 12 1009.1 - 0.0 - - - - - - -
23/05:00pm 30.0 E 7 13 1008.9 - 0.0 - - - - - - -
23/04:30pm 30.0 NE 9 13 1008.8 - 0.0 - - - - - - -
23/04:00pm 29.7 NNE 13 17 1008.8 - 0.0 - - - - - - -
23/03:30pm 30.6 NNE 14 17 1008.9 - 0.0 - - - - - - -
23/03:00pm 32.2 ENE 8 14 1009.2 - 0.0 - - - - - - -
23/02:30pm 31.5 ESE 8 13 1009.7 - 0.0 - - - - - - -
23/02:00pm 31.5 SE 8 13 1010.0 - 0.0 - - - - - - -
23/01:30pm 31.6 SE 8 11 1010.4 - 0.0 - - - - - - -
23/01:00pm 30.8 E 8 13 1010.8 - 0.0 - - - - - - -
23/12:30pm 30.4 ESE 8 13 1011.0 - 0.0 - - - - - - -
23/12:00pm 30.2 ESE 9 13 1011.4 - 0.0 - - - - - - -
23/11:30am 30.4 ESE 7 11 1011.8 - 0.0 - - - - - - -
23/11:00am 29.9 ESE 8 13 1012.2 - 0.0 - - - - - - -
23/10:30am 29.4 E 7 12 1012.4 - 0.0 - - - - - - -
23/10:00am 28.6 E 7 9 1012.4 - 0.0 - - - - - - -
23/09:30am 27.5 ESE 6 11 1012.7 - 0.0 - - - - - - -
23/09:00am 25.6 ESE 5 7 1012.7 - 0.0 - - - - - - -
23/08:30am 24.8 ESE 5 8 1012.6 - 0.0 - - - - - - -
23/08:00am 23.5 SE 5 8 1012.2 - 0.0 - - - - - - -
23/07:30am 22.7 E 4 5 1012.0 - 0.0 - - - - - - -
23/07:00am 22.3 SE 5 7 1011.8 - 0.0 - - - - - - -
23/06:30am 22.4 SE 5 8 1011.8 - 0.0 - - - - - - -
23/06:00am 22.5 SE 6 8 1011.5 - 0.0 - - - - - - -
23/05:30am 22.7 SSE 5 7 1011.0 - 0.0 - - - - - - -
23/05:00am 22.6 SE 5 6 1010.7 - 0.0 - - - - - - -
23/04:30am 22.7 ESE 5 6 1010.6 - 0.0 - - - - - - -
23/04:00am 22.8 ESE 5 6 1010.6 - 0.0 - - - - - - -
23/03:30am 23.0 SE 5 7 1010.9 - 0.0 - - - - - - -
23/03:00am 23.4 SE 5 6 1010.9 - 0.0 - - - - - - -
23/02:30am 23.8 SE 6 11 1011.1 - 0.0 - - - - - - -
23/02:00am 23.9 SE 7 12 1011.1 - 0.0 - - - - - - -
23/01:30am 24.0 SE 7 11 1011.1 - 0.0 - - - - - - -
23/01:00am 24.1 SE 6 9 1011.4 - 0.0 - - - - - - -
23/12:30am 24.3 SE 7 10 1011.6 - 0.0 - - - - - - -
23/12:00am 24.5 SE 6 10 1011.8 - 0.0 - - - - - - -
 
Date/Time
CST
Temp
°C
Wind Pressure Rain since
9am
mm
Weather Cloud Vis
km
Sea
Height
m
Swell
Dir  Spd
kts
Gust
kts
hPa Trend Height
m
Period
s
Dir
22/11:30pm 24.8 SE 7 10 1011.8 - 0.0 - - - - - - -
22/11:00pm 24.9 SE 6 9 1011.8 - 0.0 - - - - - - -
22/10:30pm 25.1 SE 6 9 1011.8 - 0.0 - - - - - - -
22/10:00pm 25.5 SE 6 9 1011.8 - 0.0 - - - - - - -
22/09:30pm 25.9 SE 6 10 1011.8 - 0.0 - - - - - - -
22/09:00pm 26.3 SE 7 11 1011.6 - 0.0 - - - - - - -
22/08:30pm 26.6 ESE 7 13 1011.3 - 0.0 - - - - - - -
22/08:00pm 27.0 ESE 6 11 1011.1 - 0.0 - - - - - - -
22/07:30pm 27.3 ESE 7 13 1010.7 - 0.0 - - - - - - -
22/07:00pm 27.5 E 5 8 1010.5 - 0.0 - - - - - - -
22/06:30pm 28.0 E 5 8 1010.3 - 0.0 - - - - - - -
22/06:00pm 29.1 E 7 13 1010.1 - 0.0 - - - - - - -
22/05:30pm 29.9 E 8 14 1010.0 - 0.0 - - - - - - -
22/05:00pm 30.5 ESE 10 16 1009.8 - 0.0 - - - - - - -
22/04:30pm 30.9 ESE 8 13 1009.7 - 0.0 - - - - - - -
22/04:00pm 31.1 E 9 17 1009.7 - 0.0 - - - - - - -
22/03:30pm 31.3 E 9 15 1009.7 - 0.0 - - - - - - -
22/03:00pm 31.0 ESE 11 17 1009.9 - 0.0 - - - - - - -
22/02:30pm 31.5 ESE 9 15 1010.3 - 0.0 - - - - - - -
22/02:00pm 31.0 E 8 14 1010.6 - 0.0 - - - - - - -
22/01:30pm 30.5 ESE 10 16 1011.0 - 0.0 - - - - - - -
22/01:00pm 30.3 ESE 10 16 1011.4 - 0.0 - - - - - - -
22/12:30pm 29.3 ESE 10 16 1011.6 - 0.0 - - - - - - -
22/12:00pm 28.9 ESE 11 17 1012.2 - 0.0 - - - - - - -
22/11:30am 28.9 ESE 11 18 1012.6 - 0.0 - - - - - - -
22/11:00am 28.6 ESE 10 16 1012.9 - 0.0 - - - - - - -
22/10:30am 28.0 ESE 8 14 1013.2 - 0.0 - - - - - - -
22/10:00am 27.6 SE 8 12 1013.5 - 0.0 - - - - - - -
22/09:30am 26.5 ESE 8 12 1013.5 - 0.0 - - - - - - -
22/09:00am 25.2 SE 9 12 1013.5 - 0.0 - - - - - - -
22/08:30am 24.2 SE 7 10 1013.3 - 0.0 - - - - - - -
22/08:00am 23.3 SE 8 12 1013.0 - 0.0 - - - - - - -
22/07:30am 22.6 SE 7 11 1012.7 - 0.0 - - - - - - -
22/07:00am 22.2 SE 7 10 1012.5 - 0.0 - - - - - - -
22/06:30am 22.1 SSE 7 9 1012.4 - 0.0 - - - - - - -
22/06:00am 22.1 SSE 7 9 1012.0 - 0.0 - - - - - - -
22/05:30am 22.1 SE 7 10 1011.8 - 0.0 - - - - - - -
22/05:00am 22.3 SE 8 11 1011.6 - 0.0 - - - - - - -
22/04:30am 22.4 SE 6 9 1011.6 - 0.0 - - - - - - -
22/04:00am 22.5 SE 7 9 1011.5 - 0.0 - - - - - - -
22/03:30am 22.8 SSE 6 8 1011.7 - 0.0 - - - - - - -
22/03:00am 23.1 SSE 5 8 1012.0 - 0.0 - - - - - - -
22/02:30am 23.4 SE 6 8 1012.1 - 0.0 - - - - - - -
22/02:00am 23.6 SE 6 9 1012.2 - 0.0 - - - - - - -
22/01:30am 24.0 SE 8 11 1012.4 - 0.0 - - - - - - -
22/01:00am 24.1 SE 7 11 1012.6 - 0.0 - - - - - - -
22/12:30am 24.4 SE 9 16 1012.6 - 0.0 - - - - - - -
22/12:00am 24.3 SE 9 14 1012.7 - 0.0 - - - - - - -
 
Date/Time
CST
Temp
°C
Wind Pressure Rain since
9am
mm
Weather Cloud Vis
km
Sea
Height
m
Swell
Dir  Spd
kts
Gust
kts
hPa Trend Height
m
Period
s
Dir
21/11:30pm 24.6 SE 8 11 1012.6 - 0.0 - - - - - - -
21/11:00pm 24.8 SE 8 13 1012.5 - 0.0 - - - - - - -
21/10:30pm 25.0 SE 7 11 1012.6 - 0.0 - - - - - - -
21/10:00pm 25.2 SE 6 8 1012.5 - 0.0 - - - - - - -
21/09:30pm 25.6 SE 6 9 1012.3 - 0.0 - - - - - - -
21/09:00pm 26.0 SE 6 9 1012.0 - 0.0 - - - - - - -
21/08:30pm 26.5 SE 7 11 1011.7 - 0.0 - - - - - - -
21/08:00pm 26.9 ESE 7 10 1011.6 - 0.0 - - - - - - -
21/07:30pm 26.9 ESE 5 8 1011.3 - 0.0 - - - - - - -
21/07:00pm 27.4 ESE 5 8 1011.1 - 0.0 - - - - - - -
21/06:30pm 27.9 E 6 8 1010.6 - 0.0 - - - - - - -
21/06:00pm 28.6 E 7 11 1010.3 - 0.0 - - - - - - -
21/05:30pm 29.5 E 8 14 1010.0 - 0.0 - - - - - - -
21/05:00pm 30.1 E 8 12 1009.9 - 0.0 - - - - - - -
21/04:30pm 30.5 E 8 13 1009.9 - 0.0 - - - - - - -
21/04:00pm 30.5 E 9 14 1009.9 - 0.0 - - - - - - -
21/03:30pm 30.8 E 9 15 1010.0 - 0.0 - - - - - - -
21/03:00pm 31.0 ESE 9 13 1010.2 - 0.0 - - - - - - -
21/02:30pm 30.9 ESE 8 13 1010.5 - 0.0 - - - - - - -
21/02:00pm 31.3 ESE 9 12 1011.1 - 0.0 - - - - - - -
21/01:30pm 31.5 SE 10 16 1011.5 - 0.0 - - - - - - -
21/01:00pm 30.2 SE 10 16 1011.9 - 0.0 - - - - - - -
21/12:30pm 30.1 SE 9 14 1012.4 - 0.0 - - - - - - -

Other Formats:

Comma delimited format used in spreadsheet applications
http://www.bom.gov.au/fwo/IDD60701/IDD60701.95146.axf

JavaScript Object Notation format (JSON) in row-major order
http://www.bom.gov.au/fwo/IDD60701/IDD60701.95146.json